createdAt,value
2022-10-13T00:00:49.973Z,1.67
2022-10-13T00:03:17.977Z,1.73
2022-10-13T00:05:47.973Z,1.70
2022-10-13T00:08:19.465Z,1.90
2022-10-13T00:10:49.320Z,1.60
2022-10-13T00:13:17.011Z,1.60
2022-10-13T00:15:45.773Z,1.30
2022-10-13T00:18:13.605Z,1.60
2022-10-13T00:20:49.917Z,1.83
2022-10-13T00:23:17.958Z,1.60
2022-10-13T00:25:49.933Z,1.83
2022-10-13T00:28:19.905Z,1.40
2022-10-13T00:30:47.512Z,1.67
2022-10-13T00:33:14.964Z,1.77
2022-10-13T00:35:44.018Z,1.37
2022-10-13T00:38:12.006Z,1.83
2022-10-13T00:40:45.366Z,1.63
2022-10-13T00:43:22.978Z,2.07
2022-10-13T00:45:51.541Z,1.70
2022-10-13T00:48:30.078Z,1.70
2022-10-13T00:50:58.834Z,1.90
2022-10-13T00:53:32.101Z,1.60
2022-10-13T00:55:59.681Z,1.63
2022-10-13T00:58:32.934Z,1.83
2022-10-13T01:01:04.382Z,2.03
2022-10-13T01:03:32.336Z,1.60
2022-10-13T01:06:02.653Z,1.70
2022-10-13T01:08:30.292Z,1.70
2022-10-13T01:11:06.702Z,2.10
2022-10-13T01:13:58.468Z,1.80
2022-10-13T01:16:37.348Z,2.10
2022-10-13T01:19:26.262Z,1.83
2022-10-13T01:22:23.955Z,1.80
2022-10-13T01:25:15.977Z,2.23
2022-10-13T01:27:49.461Z,2.00
2022-10-13T01:30:18.347Z,1.93
2022-10-13T01:33:03.905Z,1.93
2022-10-13T01:35:42.523Z,1.57
2022-10-13T01:38:39.375Z,2.00
2022-10-13T01:41:24.988Z,1.80
2022-10-13T01:44:12.527Z,1.83
2022-10-13T01:46:40.990Z,1.90
2022-10-13T01:49:12.345Z,2.10
2022-10-13T01:51:41.058Z,1.97
2022-10-13T01:54:08.395Z,2.43
2022-10-13T01:56:35.526Z,2.00
2022-10-13T01:59:08.890Z,2.13
2022-10-13T02:01:51.082Z,1.87
2022-10-13T02:04:24.827Z,1.87
2022-10-13T02:07:24.072Z,1.90
2022-10-13T02:10:02.305Z,1.90
2022-10-13T02:12:44.567Z,2.00
2022-10-13T02:15:16.806Z,2.10
2022-10-13T02:17:43.983Z,2.17
2022-10-13T02:20:11.795Z,2.30
2022-10-13T02:22:45.205Z,2.07
2022-10-13T02:25:13.435Z,1.73
2022-10-13T02:27:41.257Z,2.00
2022-10-13T02:30:09.073Z,1.97
2022-10-13T02:32:36.201Z,2.10
2022-10-13T02:35:03.494Z,2.13
2022-10-13T02:37:30.712Z,2.53
2022-10-13T02:39:57.962Z,2.00
2022-10-13T02:42:25.244Z,2.17
2022-10-13T02:44:52.509Z,2.60
2022-10-13T02:47:19.754Z,2.27
2022-10-13T02:49:46.963Z,2.20
2022-10-13T02:52:14.596Z,2.10
2022-10-13T02:54:41.742Z,1.83
2022-10-13T02:57:08.889Z,2.10
2022-10-13T02:59:36.118Z,2.10
2022-10-13T03:02:03.418Z,2.30
2022-10-13T03:04:30.774Z,2.97
2022-10-13T03:06:57.927Z,2.13
2022-10-13T03:09:25.279Z,2.37
2022-10-13T03:11:52.543Z,2.47
2022-10-13T03:14:19.910Z,3.20
2022-10-13T03:16:47.449Z,2.67
2022-10-13T03:19:14.657Z,3.17
2022-10-13T03:21:42.107Z,2.30
2022-10-13T03:24:09.259Z,2.43
2022-10-13T03:26:36.710Z,2.33
2022-10-13T03:29:03.983Z,2.43
2022-10-13T03:31:31.435Z,2.93
2022-10-13T03:33:58.611Z,2.93
2022-10-13T03:36:25.801Z,3.00
2022-10-13T03:38:52.980Z,2.60
2022-10-13T03:41:20.135Z,3.10
2022-10-13T03:43:47.331Z,2.67
2022-10-13T03:46:17.563Z,3.20
2022-10-13T03:48:45.129Z,2.97
2022-10-13T03:51:15.117Z,3.10
2022-10-13T03:53:42.202Z,3.00
2022-10-13T03:56:15.028Z,3.13
2022-10-13T03:58:43.073Z,3.43
2022-10-13T04:01:13.313Z,2.90
2022-10-13T04:03:40.640Z,4.07
2022-10-13T04:06:08.024Z,3.10
2022-10-13T04:08:35.266Z,3.10
2022-10-13T04:11:05.183Z,3.33
2022-10-13T04:13:33.162Z,3.10
2022-10-13T04:16:08.570Z,2.90
2022-10-13T04:18:36.116Z,2.90
2022-10-13T04:21:09.245Z,2.60
2022-10-13T04:23:36.778Z,2.73
2022-10-13T04:26:05.120Z,3.10
2022-10-13T04:28:36.005Z,3.17
2022-10-13T04:31:03.865Z,2.70
2022-10-13T04:33:31.128Z,4.20
2022-10-13T04:35:58.383Z,3.87
2022-10-13T04:38:25.528Z,4.17
2022-10-13T04:40:52.701Z,3.87
2022-10-13T04:43:19.973Z,3.30
2022-10-13T04:45:47.119Z,3.47
2022-10-13T04:48:14.747Z,2.77
2022-10-13T04:50:41.881Z,3.03
2022-10-13T04:53:09.081Z,2.87
2022-10-13T04:55:37.296Z,2.30
2022-10-13T04:58:04.518Z,3.07
2022-10-13T05:00:31.799Z,2.80
2022-10-13T05:02:58.950Z,2.67
2022-10-13T05:05:26.245Z,3.63
2022-10-13T05:07:53.458Z,3.73
2022-10-13T05:10:20.735Z,3.13
2022-10-13T05:12:47.964Z,3.00
2022-10-13T05:15:15.361Z,3.20
2022-10-13T05:17:42.527Z,3.10
2022-10-13T05:20:10.732Z,3.37
2022-10-13T05:22:38.097Z,2.90
2022-10-13T05:25:05.505Z,2.97
2022-10-13T05:27:32.701Z,2.80
2022-10-13T05:29:59.952Z,3.17
2022-10-13T05:32:27.354Z,3.13
2022-10-13T05:34:54.488Z,3.17
2022-10-13T05:37:22.740Z,3.50
2022-10-13T05:39:50.008Z,3.10
2022-10-13T05:42:17.420Z,3.27
2022-10-13T05:44:45.046Z,3.90
2022-10-13T05:47:12.316Z,3.37
2022-10-13T05:49:42.408Z,3.80
2022-10-13T05:52:11.962Z,3.57
2022-10-13T05:54:46.828Z,3.60
2022-10-13T05:57:13.984Z,3.07
2022-10-13T05:59:46.189Z,3.17
2022-10-13T06:02:15.903Z,3.43
2022-10-13T06:04:48.049Z,3.00
2022-10-13T06:07:15.409Z,3.17
2022-10-13T06:09:43.145Z,3.07
2022-10-13T06:12:10.546Z,2.80
2022-10-13T06:14:38.039Z,3.27
2022-10-13T06:17:05.449Z,3.10
2022-10-13T06:19:33.175Z,3.63
2022-10-13T06:22:03.526Z,3.40
2022-10-13T06:24:31.084Z,2.77
2022-10-13T06:26:58.372Z,3.30
2022-10-13T06:29:25.675Z,2.90
2022-10-13T06:31:52.783Z,3.33
2022-10-13T06:34:19.976Z,3.30
2022-10-13T06:36:47.492Z,2.97
2022-10-13T06:39:14.577Z,2.93
2022-10-13T06:41:41.687Z,2.97
2022-10-13T06:44:08.979Z,3.13
2022-10-13T06:46:36.165Z,2.67
2022-10-13T06:49:03.377Z,3.40
2022-10-13T06:51:30.638Z,2.90
2022-10-13T06:53:57.786Z,3.00
2022-10-13T06:56:25.092Z,3.57
2022-10-13T06:58:52.335Z,3.80
2022-10-13T07:01:19.664Z,3.47
2022-10-13T07:03:53.148Z,3.53
2022-10-13T07:06:22.803Z,3.70
2022-10-13T07:08:50.159Z,3.73
2022-10-13T07:11:18.600Z,3.67
2022-10-13T07:13:47.051Z,3.33
2022-10-13T07:16:15.613Z,4.03
2022-10-13T07:18:42.919Z,3.50
2022-10-13T07:21:10.250Z,3.30
2022-10-13T07:23:37.347Z,3.60
2022-10-13T07:26:09.785Z,3.47
2022-10-13T07:28:37.524Z,3.60
2022-10-13T07:31:14.221Z,3.33
2022-10-13T07:33:44.122Z,3.37
2022-10-13T07:36:12.179Z,3.30
2022-10-13T07:38:40.069Z,3.50
2022-10-13T07:41:09.478Z,3.10
2022-10-13T07:43:36.898Z,3.33
2022-10-13T07:46:05.081Z,3.50
2022-10-13T07:48:33.307Z,3.33
2022-10-13T07:51:07.436Z,3.43
2022-10-13T07:53:35.581Z,3.87
2022-10-13T07:56:04.503Z,3.30
2022-10-13T07:58:31.679Z,3.60
2022-10-13T08:01:00.655Z,4.10
2022-10-13T08:03:29.201Z,3.60
2022-10-13T08:05:59.639Z,3.67
2022-10-13T08:08:27.661Z,4.07
2022-10-13T08:10:55.783Z,3.80
2022-10-13T08:13:23.669Z,4.00
2022-10-13T08:15:50.895Z,3.40
2022-10-13T08:18:18.247Z,3.50
2022-10-13T08:20:46.276Z,3.57
2022-10-13T08:23:13.860Z,4.07
2022-10-13T08:25:42.915Z,3.60
2022-10-13T08:28:22.054Z,3.83
2022-10-13T08:30:50.686Z,3.47
2022-10-13T08:33:17.952Z,3.20
2022-10-13T08:35:45.261Z,3.63
2022-10-13T08:38:12.968Z,3.90
2022-10-13T08:40:40.341Z,3.72
2022-10-13T08:43:12.929Z,3.50
2022-10-13T08:45:41.640Z,3.33
2022-10-13T08:48:18.565Z,3.33
2022-10-13T08:50:49.221Z,3.50
2022-10-13T08:53:19.335Z,3.70
2022-10-13T08:55:52.637Z,3.80
2022-10-13T08:58:27.296Z,3.70
2022-10-13T09:01:09.431Z,3.90
2022-10-13T09:03:45.474Z,3.53
2022-10-13T09:06:39.805Z,3.23
2022-10-13T09:09:12.532Z,3.40
2022-10-13T09:11:42.778Z,3.27
2022-10-13T09:14:22.466Z,3.03
2022-10-13T09:16:51.178Z,3.45
2022-10-13T09:19:23.032Z,2.90
2022-10-13T09:21:52.816Z,3.30
2022-10-13T09:24:22.000Z,3.58
2022-10-13T09:26:52.731Z,3.20
2022-10-13T09:29:29.101Z,3.00
2022-10-13T09:32:20.449Z,3.30
2022-10-13T09:34:49.224Z,2.75
2022-10-13T09:37:26.811Z,3.35
2022-10-13T09:40:21.818Z,3.10
2022-10-13T09:42:55.023Z,3.40
2022-10-13T09:45:25.378Z,2.72
2022-10-13T09:47:57.736Z,2.88
2022-10-13T09:50:30.725Z,2.72
2022-10-13T09:53:29.328Z,2.80
2022-10-13T09:56:18.254Z,2.63
2022-10-13T09:59:01.181Z,3.20
2022-10-13T10:01:35.016Z,2.88
2022-10-13T10:04:09.744Z,3.17
2022-10-13T10:06:38.960Z,2.97
2022-10-13T10:09:20.029Z,2.72
2022-10-13T10:11:50.474Z,3.10
2022-10-13T10:14:34.878Z,2.80
2022-10-13T10:17:22.703Z,2.92
2022-10-13T10:20:02.066Z,3.28
2022-10-13T10:22:58.119Z,3.10
2022-10-13T10:25:33.377Z,2.80
2022-10-13T10:28:32.278Z,3.00
2022-10-13T10:31:19.815Z,3.10
2022-10-13T10:34:08.323Z,2.95
2022-10-13T10:36:55.512Z,2.90
2022-10-13T10:39:42.093Z,3.00
2022-10-13T10:42:12.429Z,2.85
2022-10-13T10:44:43.403Z,2.70
2022-10-13T10:47:30.410Z,2.95
2022-10-13T10:50:03.877Z,2.60
2022-10-13T10:52:48.434Z,2.58
2022-10-13T10:55:37.612Z,2.50
2022-10-13T10:58:14.336Z,2.83
2022-10-13T11:01:04.271Z,2.55
2022-10-13T11:04:21.742Z,2.33
2022-10-13T11:06:49.064Z,2.50
2022-10-13T11:09:42.050Z,2.15
2022-10-13T11:12:21.860Z,2.42
2022-10-13T11:15:08.802Z,2.70
2022-10-13T11:17:42.793Z,3.17
2022-10-13T11:20:20.104Z,2.50
2022-10-13T11:22:59.521Z,2.55
2022-10-13T11:25:45.705Z,3.10
2022-10-13T11:28:22.207Z,2.47
2022-10-13T11:30:50.855Z,2.47
2022-10-13T11:33:53.543Z,2.22
2022-10-13T11:36:44.344Z,2.35
2022-10-13T11:39:32.295Z,3.00
2022-10-13T11:42:24.053Z,2.80
2022-10-13T11:44:56.954Z,2.58
2022-10-13T11:47:44.060Z,2.35
2022-10-13T11:50:54.880Z,2.28
2022-10-13T11:53:26.235Z,2.25
2022-10-13T11:55:58.919Z,2.10
2022-10-13T11:58:29.249Z,2.47
2022-10-13T12:01:12.088Z,2.45
2022-10-13T12:03:44.505Z,2.33
2022-10-13T12:06:23.753Z,2.50
2022-10-13T12:08:52.525Z,2.35
2022-10-13T12:11:28.629Z,2.10
2022-10-13T12:13:56.607Z,2.33
2022-10-13T12:16:23.841Z,2.40
2022-10-13T12:18:51.679Z,2.30
2022-10-13T12:21:22.573Z,2.40
2022-10-13T12:23:52.008Z,2.33
2022-10-13T12:26:23.055Z,2.45
2022-10-13T12:28:54.621Z,2.40
2022-10-13T12:31:38.212Z,2.17
2022-10-13T12:34:16.710Z,2.20
2022-10-13T12:39:25.313Z,2.42
2022-10-13T12:41:53.582Z,2.25
2022-10-13T12:44:24.058Z,2.47
2022-10-13T12:46:59.105Z,2.13
2022-10-13T12:49:35.264Z,2.20
2022-10-13T12:52:09.910Z,1.92
2022-10-13T12:54:39.691Z,2.20
2022-10-13T12:57:35.155Z,1.95
2022-10-13T13:00:19.697Z,1.92
2022-10-13T13:02:55.807Z,2.00
2022-10-13T13:05:37.977Z,1.95
2022-10-13T13:08:21.301Z,2.00
2022-10-13T13:11:03.720Z,2.25
2022-10-13T13:13:31.367Z,2.20
2022-10-13T13:16:20.081Z,2.30
2022-10-13T13:18:48.984Z,2.28
2022-10-13T13:21:18.045Z,2.35
2022-10-13T13:23:52.795Z,2.60
2022-10-13T13:26:23.479Z,2.10
2022-10-13T13:28:53.163Z,1.77
2022-10-13T13:31:26.349Z,2.40
2022-10-13T13:33:53.723Z,2.13
2022-10-13T13:36:23.088Z,2.30
2022-10-13T13:38:51.264Z,2.67
2022-10-13T13:41:18.970Z,2.40
2022-10-13T13:43:46.491Z,2.38
2022-10-13T13:46:18.500Z,2.35
2022-10-13T13:48:45.810Z,2.30
2022-10-13T13:51:14.560Z,2.30
2022-10-13T13:53:41.971Z,3.00
2022-10-13T13:56:15.829Z,2.70
2022-10-13T13:58:44.226Z,2.45
2022-10-13T14:01:12.455Z,2.78
2022-10-13T14:03:39.944Z,2.75
2022-10-13T14:06:07.537Z,2.30
2022-10-13T14:08:37.029Z,2.45
2022-10-13T14:11:07.693Z,2.22
2022-10-13T14:13:35.150Z,2.10
2022-10-13T14:16:03.249Z,2.30
2022-10-13T14:18:31.375Z,2.80
2022-10-13T14:20:58.492Z,2.22
2022-10-13T14:23:25.758Z,2.88
2022-10-13T14:25:52.993Z,2.55
2022-10-13T14:28:20.388Z,2.33
2022-10-13T14:30:47.846Z,2.63
2022-10-13T14:33:19.428Z,2.25
2022-10-13T14:35:47.183Z,2.30
2022-10-13T14:38:14.937Z,2.08
2022-10-13T14:40:42.645Z,2.20
2022-10-13T14:43:10.007Z,2.35
2022-10-13T14:45:37.089Z,2.55
2022-10-13T14:48:04.483Z,2.30
2022-10-13T14:50:31.628Z,2.35
2022-10-13T14:52:58.800Z,2.60
2022-10-13T14:55:26.024Z,2.60
2022-10-13T14:57:53.271Z,2.30
2022-10-13T15:00:20.940Z,2.08
2022-10-13T15:02:49.535Z,2.88
2022-10-13T15:05:16.942Z,2.42
2022-10-13T15:07:44.422Z,2.35
2022-10-13T15:10:12.734Z,2.30
2022-10-13T15:12:40.389Z,2.47
2022-10-13T15:15:08.250Z,2.38
2022-10-13T15:17:37.111Z,2.90
2022-10-13T15:20:05.768Z,3.65
2022-10-13T15:22:33.027Z,2.95
2022-10-13T15:25:00.981Z,2.55
2022-10-13T15:27:28.268Z,2.58
2022-10-13T15:29:55.654Z,2.42
2022-10-13T15:32:23.814Z,2.55
2022-10-13T15:34:51.312Z,2.40
2022-10-13T15:37:18.522Z,2.70
2022-10-13T15:39:45.944Z,2.65
2022-10-13T15:42:13.359Z,2.75
2022-10-13T15:45:08.187Z,2.45
2022-10-13T15:47:28.223Z,2.53
2022-10-13T15:49:55.708Z,2.40
2022-10-13T15:52:23.490Z,2.50
2022-10-13T15:54:51.881Z,2.30
2022-10-13T15:57:19.293Z,2.28
2022-10-13T15:59:46.528Z,2.50
2022-10-13T16:02:13.841Z,2.00
2022-10-13T16:04:41.073Z,2.60
2022-10-13T16:07:08.681Z,2.23
2022-10-13T16:09:35.948Z,2.30
2022-10-13T16:12:03.096Z,2.33
2022-10-13T16:14:30.429Z,2.95
2022-10-13T16:17:00.774Z,2.03
2022-10-13T16:19:27.988Z,2.38
2022-10-13T16:21:55.472Z,2.42
2022-10-13T16:24:22.644Z,2.58
2022-10-13T16:26:49.814Z,2.80
2022-10-13T16:29:17.214Z,3.72
2022-10-13T16:31:45.201Z,2.67
2022-10-13T16:34:12.350Z,2.97
2022-10-13T16:36:39.486Z,3.07
2022-10-13T16:39:06.861Z,2.97
2022-10-13T16:41:34.158Z,2.30
2022-10-13T16:44:01.455Z,2.60
2022-10-13T16:46:28.721Z,2.28
2022-10-13T16:48:55.853Z,2.43
2022-10-13T16:51:25.361Z,2.67
2022-10-13T16:53:56.779Z,2.77
2022-10-13T16:56:28.757Z,2.60
2022-10-13T16:59:04.355Z,3.17
2022-10-13T17:01:33.337Z,2.93
2022-10-13T17:04:04.200Z,2.73
2022-10-13T17:06:32.197Z,2.77
2022-10-13T17:09:03.588Z,3.20
2022-10-13T17:11:33.196Z,3.13
2022-10-13T17:14:01.663Z,3.30
2022-10-13T17:16:30.566Z,3.70
2022-10-13T17:18:58.438Z,3.80
2022-10-13T17:21:25.773Z,3.57
2022-10-13T17:23:55.925Z,3.40
2022-10-13T17:26:23.946Z,3.13
2022-10-13T17:28:51.489Z,2.83
2022-10-13T17:31:22.188Z,3.00
2022-10-13T17:33:50.676Z,2.70
2022-10-13T17:36:24.916Z,2.70
2022-10-13T17:38:53.550Z,2.37
2022-10-13T17:41:21.020Z,2.63
2022-10-13T17:43:49.438Z,2.70
2022-10-13T17:46:37.004Z,2.07
2022-10-13T17:49:07.253Z,2.70
2022-10-13T17:51:34.808Z,2.53
2022-10-13T17:54:02.349Z,2.80
2022-10-13T17:56:30.054Z,3.13
2022-10-13T17:58:59.868Z,3.00
2022-10-13T18:01:32.137Z,2.60
2022-10-13T18:04:02.548Z,2.30
2022-10-13T18:06:38.369Z,2.80
2022-10-13T18:09:15.917Z,2.30
2022-10-13T18:11:51.464Z,2.67
2022-10-13T18:14:26.180Z,2.67
2022-10-13T18:16:59.237Z,3.00
2022-10-13T18:19:30.446Z,2.70
2022-10-13T18:22:04.614Z,2.73
2022-10-13T18:24:33.787Z,2.67
2022-10-13T18:27:03.379Z,2.47
2022-10-13T18:29:38.344Z,3.00
2022-10-13T18:32:07.501Z,2.60
2022-10-13T18:34:37.340Z,2.90
2022-10-13T18:37:05.790Z,2.67
2022-10-13T18:39:34.717Z,2.80
2022-10-13T18:42:02.115Z,2.60
2022-10-13T18:44:32.177Z,2.70
2022-10-13T18:47:00.745Z,2.75
2022-10-13T18:49:34.343Z,2.95
2022-10-13T18:52:04.049Z,2.83
2022-10-13T18:54:32.486Z,2.93
2022-10-13T18:57:03.256Z,3.00
2022-10-13T18:59:31.570Z,2.75
2022-10-13T19:01:59.277Z,2.90
2022-10-13T19:04:28.051Z,3.20
2022-10-13T19:06:56.571Z,2.80
2022-10-13T19:09:28.134Z,2.73
2022-10-13T19:11:58.138Z,3.30
2022-10-13T19:14:28.993Z,3.00
2022-10-13T19:17:01.632Z,3.30
2022-10-13T19:19:31.676Z,2.67
2022-10-13T19:22:02.853Z,3.07
2022-10-13T19:24:30.493Z,2.87
2022-10-13T19:26:57.940Z,3.33
2022-10-13T19:29:25.636Z,3.10
2022-10-13T19:31:53.081Z,3.10
2022-10-13T19:34:21.045Z,3.07
2022-10-13T19:36:48.672Z,2.90
2022-10-13T19:39:24.333Z,3.03
2022-10-13T19:41:53.506Z,2.80
2022-10-13T19:44:21.929Z,3.03
2022-10-13T19:46:50.354Z,3.60
2022-10-13T19:49:19.476Z,3.90
2022-10-13T19:51:48.034Z,3.30
2022-10-13T19:54:19.164Z,2.67
2022-10-13T19:56:55.592Z,3.23
2022-10-13T19:59:23.129Z,4.00
2022-10-13T20:01:52.727Z,2.97
2022-10-13T20:04:22.758Z,3.37
2022-10-13T20:06:51.586Z,3.93
2022-10-13T20:09:19.746Z,3.13
2022-10-13T20:11:48.490Z,3.30
2022-10-13T20:14:16.414Z,3.70
2022-10-13T20:16:44.355Z,3.40
2022-10-13T20:19:13.640Z,3.67
2022-10-13T20:21:40.819Z,4.00
2022-10-13T20:24:08.145Z,3.37
2022-10-13T20:26:35.385Z,3.37
2022-10-13T20:29:02.782Z,3.07
2022-10-13T20:31:29.976Z,3.23
2022-10-13T20:33:58.697Z,3.50
2022-10-13T20:36:29.634Z,3.30
2022-10-13T20:38:57.633Z,3.10
2022-10-13T20:41:31.253Z,4.17
2022-10-13T20:44:01.173Z,3.63
2022-10-13T20:46:28.718Z,3.30
2022-10-13T20:49:13.046Z,4.10
2022-10-13T20:51:41.940Z,3.00
2022-10-13T20:54:10.336Z,3.83
2022-10-13T20:56:39.042Z,3.27
2022-10-13T20:59:08.562Z,4.20
2022-10-13T21:01:37.143Z,3.93
2022-10-13T21:04:05.588Z,3.40
2022-10-13T21:06:33.213Z,3.43
2022-10-13T21:09:00.617Z,4.10
2022-10-13T21:11:27.752Z,3.90
2022-10-13T21:13:55.265Z,3.77
2022-10-13T21:16:27.308Z,4.40
2022-10-13T21:18:56.921Z,3.13
2022-10-13T21:21:30.685Z,3.20
2022-10-13T21:24:00.712Z,3.53
2022-10-13T21:26:30.017Z,3.63
2022-10-13T21:28:57.925Z,3.97
2022-10-13T21:31:26.674Z,3.50
2022-10-13T21:33:54.898Z,3.80
2022-10-13T21:36:30.862Z,3.77
2022-10-13T21:39:04.572Z,3.97
2022-10-13T21:41:31.981Z,3.80
2022-10-13T21:43:59.306Z,3.60
2022-10-13T21:46:28.892Z,3.17
2022-10-13T21:48:59.065Z,3.53
2022-10-13T21:51:34.620Z,3.60
2022-10-13T21:54:05.233Z,3.37
2022-10-13T21:56:34.082Z,3.40
2022-10-13T21:59:01.782Z,3.47
2022-10-13T22:01:29.364Z,4.40
2022-10-13T22:03:59.121Z,4.33
2022-10-13T22:06:27.291Z,3.90
2022-10-13T22:08:56.095Z,3.53
2022-10-13T22:11:25.848Z,3.73
2022-10-13T22:13:53.353Z,3.00
2022-10-13T22:16:26.332Z,3.60
2022-10-13T22:18:55.113Z,4.00
2022-10-13T22:21:25.189Z,4.47
2022-10-13T22:23:55.838Z,3.87
2022-10-13T22:26:22.950Z,4.33
2022-10-13T22:28:51.804Z,4.30
2022-10-13T22:31:19.720Z,4.57
2022-10-13T22:33:47.140Z,4.10
2022-10-13T22:36:19.568Z,3.70
2022-10-13T22:38:48.364Z,4.10
2022-10-13T22:41:17.163Z,3.60
2022-10-13T22:43:44.997Z,3.90
2022-10-13T22:46:18.124Z,4.17
2022-10-13T22:48:45.621Z,3.90
2022-10-13T22:51:24.183Z,3.97
2022-10-13T22:53:51.492Z,4.80
2022-10-13T22:56:24.379Z,4.10
2022-10-13T22:58:53.409Z,3.90
2022-10-13T23:01:21.947Z,4.10
2022-10-13T23:03:50.946Z,4.73
2022-10-13T23:06:21.287Z,4.23
2022-10-13T23:08:48.910Z,4.33
2022-10-13T23:11:17.382Z,3.97
2022-10-13T23:13:45.041Z,4.17
2022-10-13T23:16:21.100Z,4.47
2022-10-13T23:18:48.643Z,5.27
2022-10-13T23:21:18.161Z,4.63
2022-10-13T23:23:46.037Z,4.00
2022-10-13T23:26:16.219Z,4.37
2022-10-13T23:28:44.102Z,4.10
2022-10-13T23:31:14.035Z,4.30
2022-10-13T23:33:41.861Z,3.93
2022-10-13T23:36:11.308Z,5.33
2022-10-13T23:38:38.657Z,4.43
2022-10-13T23:41:08.577Z,4.10
2022-10-13T23:43:35.932Z,4.93
2022-10-13T23:46:03.646Z,4.87
2022-10-13T23:48:30.802Z,4.77
2022-10-13T23:51:09.590Z,4.17
2022-10-13T23:53:38.307Z,5.13
2022-10-13T23:56:06.907Z,5.00
2022-10-13T23:58:36.792Z,4.40
